»·PEaware :: DPJ51 KLAX-MDST

DPJ51 :: KLAX-MDST

FLIGHT INFORMATION

Flight Status: Arrived
Operator: Unknown
More flights by this operator :: More flights under this callsign
Pilot: Ricardo U. (11497)
Aircraft: AIRBUS A320
(A320)
More flights by this aircraft type
Origin: KLAX Los Angeles Intl
United States
Destination: MDST Cibao Intl
Dominican Republic
More flights between these airports :: More routes between these airports
Route: LAXX1 TRM J169 TFD J50 LFK TBD LEV Q102 CYY FOWEE Y589 ALBBE RETAK RETAK1P
File this flight plan on PilotEdge
Remarks:
Altitude:
(Current/Filed)
35,000ft
Speed:
(Current/Filed)
500kts
Departed: 01-Jul-18 04:19 PM
Arrived: 01-Jul-18 10:39 PM
Distance/Time
Traveled:
2681nm/6:20
Distance/Time
To Go:
Arrived

Flight Plot

Page will automatically refresh every two minutes.

Flight plan parsing failed; only flown route is shown


Map Options




Map Legend


Flown Route
Filed Route
Departure Airport
Arrival Airport
Navaid (VOR, NDB)
Fix

Horizontal Profiles

Position Reports

Time Latitude Longitude Heading Altitude Ground
Speed
01-Jul-18 15:57 33.947218 -118.403507 227 140ft 0kts
01-Jul-18 15:58 33.947218 -118.403507 227 140ft 0kts
01-Jul-18 15:59 33.947218 -118.403507 227 140ft 0kts
01-Jul-18 16:00 33.947218 -118.403507 227 140ft 0kts
01-Jul-18 16:00 33.947218 -118.403507 227 140ft 0kts
01-Jul-18 16:01 33.947218 -118.403507 227 140ft 0kts
01-Jul-18 16:02 33.947218 -118.403507 227 140ft 0kts
01-Jul-18 16:03 33.947218 -118.403507 227 140ft 0kts
01-Jul-18 16:04 33.947218 -118.403507 227 140ft 0kts
01-Jul-18 16:05 33.947218 -118.403507 227 140ft 0kts
01-Jul-18 16:06 33.947218 -118.403507 227 140ft 0kts
01-Jul-18 16:07 33.947218 -118.403507 227 140ft 0kts
01-Jul-18 16:08 33.947218 -118.403507 227 140ft 0kts
01-Jul-18 16:09 33.947218 -118.403507 227 140ft 0kts
01-Jul-18 16:10 33.947218 -118.403507 227 140ft 0kts
01-Jul-18 16:11 33.947402 -118.403052 278 140ft 2kts
01-Jul-18 16:12 33.947122 -118.402762 356 140ft 0kts
01-Jul-18 16:13 33.947122 -118.402762 356 140ft 0kts
01-Jul-18 16:14 33.947122 -118.402762 356 140ft 0kts
01-Jul-18 16:15 33.948071 -118.402856 353 140ft 12kts
01-Jul-18 16:16 33.949511 -118.401772 352 140ft 0kts
01-Jul-18 16:17 33.949511 -118.401772 352 140ft 0kts
01-Jul-18 16:18 33.950183 -118.402488 263 140ft 7kts
01-Jul-18 16:19 33.945915 -118.442063 259 933ft 171kts
01-Jul-18 16:20 33.939199 -118.501860 262 2241ft 208kts
01-Jul-18 16:21 33.931646 -118.582143 263 3632ft 263kts
01-Jul-18 16:22 33.923520 -118.672524 263 5765ft 280kts
01-Jul-18 16:23 33.897824 -118.759353 208 7557ft 290kts
01-Jul-18 16:24 33.818545 -118.762694 172 8990ft 294kts
01-Jul-18 16:25 33.736121 -118.752634 172 8999ft 294kts
01-Jul-18 16:26 33.678387 -118.698166 95 9025ft 284kts
01-Jul-18 16:27 33.678796 -118.601219 90 10432ft 302kts
01-Jul-18 16:28 33.677356 -118.492303 90 10969ft 351kts
01-Jul-18 16:29 33.675892 -118.369350 91 12097ft 374kts
01-Jul-18 16:30 33.674220 -118.243543 91 13615ft 382kts
01-Jul-18 16:31 33.672368 -118.114639 91 15020ft 389kts
01-Jul-18 16:32 33.670365 -117.983323 91 16337ft 397kts
01-Jul-18 16:33 33.668158 -117.849414 91 17540ft 405kts
01-Jul-18 16:34 33.665777 -117.712998 91 18681ft 413kts
01-Jul-18 16:35 33.663192 -117.574057 91 19717ft 421kts
01-Jul-18 16:36 33.660386 -117.432306 91 20716ft 428kts
01-Jul-18 16:37 33.657381 -117.288151 91 21652ft 435kts
01-Jul-18 16:38 33.654151 -117.141828 91 22559ft 441kts
01-Jul-18 16:39 33.650717 -116.994016 91 23410ft 447kts
01-Jul-18 16:40 33.647039 -116.843297 91 24188ft 454kts
01-Jul-18 16:41 33.643120 -116.690973 91 24948ft 459kts
01-Jul-18 16:42 33.638980 -116.537011 91 25704ft 464kts
01-Jul-18 16:43 33.634614 -116.381801 91 26422ft 468kts
01-Jul-18 16:44 33.629989 -116.224749 91 27097ft 472kts
01-Jul-18 16:45 33.626114 -116.067138 90 27847ft 472kts
01-Jul-18 16:46 33.623535 -115.910110 91 28751ft 469kts
01-Jul-18 16:47 33.620400 -115.754280 91 29619ft 466kts
01-Jul-18 16:48 33.617099 -115.599282 91 30354ft 464kts
01-Jul-18 16:49 33.613638 -115.444699 91 31002ft 463kts
01-Jul-18 16:50 33.609988 -115.290496 91 31583ft 462kts
01-Jul-18 16:51 33.606129 -115.135989 91 32091ft 462kts
01-Jul-18 16:52 33.602119 -114.982541 91 32543ft 461kts
01-Jul-18 16:53 33.597923 -114.828916 91 32979ft 460kts
01-Jul-18 16:54 33.588642 -114.675790 95 33336ft 460kts
01-Jul-18 16:55 33.574765 -114.523160 95 33610ft 460kts
01-Jul-18 16:56 33.561021 -114.370925 95 33893ft 460kts
01-Jul-18 16:57 33.547036 -114.218484 95 34148ft 459kts
01-Jul-18 16:58 33.532856 -114.066179 95 34353ft 459kts
01-Jul-18 16:59 33.518479 -113.913871 95 34524ft 459kts
01-Jul-18 17:00 33.503890 -113.761270 95 34631ft 460kts
01-Jul-18 17:01 33.489148 -113.608990 95 34815ft 459kts
01-Jul-18 17:02 33.474242 -113.456964 95 34873ft 461kts
01-Jul-18 17:03 33.448108 -113.306990 113 34902ft 462kts
01-Jul-18 17:04 33.391849 -113.168451 114 34905ft 463kts
01-Jul-18 17:05 33.337274 -113.028749 114 34900ft 463kts
01-Jul-18 17:06 33.281906 -112.889901 114 34891ft 463kts
01-Jul-18 17:07 33.226543 -112.751012 114 34888ft 463kts
01-Jul-18 17:08 33.170916 -112.612098 114 34885ft 463kts
01-Jul-18 17:09 33.115181 -112.473604 114 34887ft 463kts
01-Jul-18 17:10 33.059315 -112.335226 114 34900ft 463kts
01-Jul-18 17:11 33.003221 -112.196851 115 34900ft 463kts
01-Jul-18 17:12 32.947029 -112.058825 115 34906ft 464kts
01-Jul-18 17:13 32.890743 -111.920560 113 34904ft 464kts
01-Jul-18 17:14 32.855713 -111.773079 103 34905ft 464kts
01-Jul-18 17:15 32.822460 -111.624514 104 34910ft 464kts
01-Jul-18 17:16 32.789381 -111.476266 104 34939ft 464kts
01-Jul-18 17:17 32.755863 -111.328099 105 34974ft 464kts
01-Jul-18 17:18 32.722291 -111.179986 105 34981ft 465kts
01-Jul-18 17:19 32.688443 -111.031794 105 35020ft 464kts
01-Jul-18 17:20 32.654472 -110.884013 105 35052ft 465kts
01-Jul-18 17:21 32.620242 -110.735696 106 35073ft 467kts
01-Jul-18 17:22 32.585700 -110.587009 106 35078ft 469kts
01-Jul-18 17:23 32.550881 -110.438092 107 35082ft 470kts
01-Jul-18 17:24 32.515734 -110.288603 107 35061ft 472kts
01-Jul-18 17:25 32.480231 -110.138550 107 35061ft 472kts
01-Jul-18 17:26 32.444717 -109.989106 108 35060ft 472kts
01-Jul-18 17:27 32.409051 -109.840055 108 35104ft 471kts
01-Jul-18 17:28 32.373039 -109.690490 108 35103ft 472kts
01-Jul-18 17:29 32.336972 -109.541374 108 35095ft 472kts
01-Jul-18 17:30 32.300692 -109.392049 109 35105ft 472kts
01-Jul-18 17:32 32.264586 -109.243322 108 35118ft 471kts
01-Jul-18 17:33 32.230498 -109.094107 108 35130ft 471kts
01-Jul-18 17:34 32.196137 -108.944534 108 35142ft 470kts
01-Jul-18 17:35 32.161705 -108.795995 108 35155ft 470kts
01-Jul-18 17:36 32.127193 -108.647281 109 35166ft 469kts
01-Jul-18 17:37 32.092391 -108.498848 109 35177ft 469kts
01-Jul-18 17:38 32.057568 -108.350677 110 35184ft 469kts
01-Jul-18 17:39 32.022528 -108.202626 110 35132ft 471kts
01-Jul-18 17:40 31.988679 -108.060411 110 35153ft 470kts
01-Jul-18 17:41 31.953294 -107.912575 110 35146ft 470kts
01-Jul-18 17:42 31.920092 -107.763614 101 35140ft 475kts
01-Jul-18 17:43 31.910319 -107.607843 98 35122ft 477kts
01-Jul-18 17:44 31.899511 -107.452174 99 35123ft 477kts
01-Jul-18 17:45 31.889241 -107.296840 99 35122ft 476kts
01-Jul-18 17:46 31.878459 -107.141266 99 35122ft 476kts
01-Jul-18 17:47 31.867525 -106.985905 99 35123ft 476kts
01-Jul-18 17:48 31.856456 -106.830842 99 35121ft 476kts
01-Jul-18 17:49 31.845246 -106.676176 99 35095ft 476kts
01-Jul-18 17:50 31.833785 -106.520755 99 35091ft 476kts
01-Jul-18 17:51 31.822120 -106.365745 99 35070ft 477kts
01-Jul-18 17:52 31.812400 -106.210006 97 35071ft 478kts
01-Jul-18 17:53 31.805399 -106.054264 97 35073ft 477kts
01-Jul-18 17:54 31.797964 -105.898231 97 35089ft 476kts
01-Jul-18 17:55 31.790509 -105.743124 97 35108ft 476kts
01-Jul-18 17:56 31.782800 -105.587865 97 35124ft 476kts
01-Jul-18 17:57 31.774905 -105.433016 97 35154ft 475kts
01-Jul-18 17:58 31.766846 -105.277933 97 35182ft 474kts
01-Jul-18 17:59 31.758589 -105.123197 97 35207ft 474kts
01-Jul-18 18:00 31.759311 -104.968336 88 35229ft 478kts
01-Jul-18 18:01 31.771355 -104.812642 88 35234ft 477kts
01-Jul-18 18:02 31.782275 -104.657314 88 35223ft 477kts
01-Jul-18 18:03 31.793250 -104.501935 88 35184ft 477kts
01-Jul-18 18:04 31.803952 -104.346290 88 35139ft 477kts
01-Jul-18 18:05 31.814534 -104.190639 88 35079ft 478kts
01-Jul-18 18:05 31.823241 -104.060370 88 35030ft 478kts
01-Jul-18 18:06 31.833388 -103.905132 88 35037ft 476kts
01-Jul-18 18:07 31.843395 -103.749994 88 35056ft 475kts
01-Jul-18 18:09 31.854759 -103.569263 88 35026ft 474kts
01-Jul-18 18:10 31.864270 -103.414819 88 35004ft 474kts
01-Jul-18 18:11 31.873703 -103.260028 87 34999ft 473kts
01-Jul-18 18:11 31.895741 -103.133269 78 35002ft 475kts
01-Jul-18 18:12 31.925257 -102.981538 79 35017ft 474kts
01-Jul-18 18:13 31.954100 -102.830573 78 35034ft 473kts
01-Jul-18 18:14 31.982736 -102.679455 78 35050ft 472kts
01-Jul-18 18:15 32.011159 -102.528662 79 35056ft 471kts
01-Jul-18 18:16 32.039316 -102.378123 78 35055ft 471kts
01-Jul-18 18:17 32.067354 -102.227254 79 35049ft 471kts
01-Jul-18 18:18 32.095285 -102.076083 79 35055ft 470kts
01-Jul-18 18:19 32.122867 -101.925413 79 35060ft 470kts
01-Jul-18 18:20 32.150331 -101.774600 79 35060ft 470kts
01-Jul-18 18:21 32.177629 -101.623433 79 35062ft 470kts
01-Jul-18 18:22 32.204688 -101.472504 79 35063ft 470kts
01-Jul-18 18:23 32.231609 -101.321439 79 35065ft 470kts
01-Jul-18 18:24 32.258308 -101.170443 79 35071ft 470kts
01-Jul-18 18:25 32.284818 -101.019178 79 35078ft 470kts
01-Jul-18 18:26 32.311235 -100.867827 80 35075ft 470kts
01-Jul-18 18:27 32.337355 -100.716529 80 35075ft 469kts
01-Jul-18 18:28 32.363274 -100.565698 80 35075ft 468kts
01-Jul-18 18:29 32.388989 -100.414684 80 35075ft 468kts
01-Jul-18 18:30 32.414517 -100.263498 80 35064ft 468kts
01-Jul-18 18:31 32.439869 -100.112519 80 35045ft 467kts
01-Jul-18 18:32 32.465022 -99.961179 80 35029ft 467kts
01-Jul-18 18:33 32.466886 -99.811406 110 35030ft 457kts
01-Jul-18 18:34 32.421906 -99.670298 111 35033ft 457kts
01-Jul-18 18:35 32.379381 -99.528527 111 35034ft 457kts
01-Jul-18 18:36 32.335874 -99.387360 111 35036ft 457kts
01-Jul-18 18:37 32.292328 -99.245932 111 35033ft 457kts
01-Jul-18 18:38 32.248580 -99.104475 111 35035ft 457kts
01-Jul-18 18:39 32.204648 -98.963511 111 35033ft 457kts
01-Jul-18 18:40 32.160831 -98.822995 111 35029ft 457kts
01-Jul-18 18:41 32.116812 -98.682891 112 35030ft 456kts
01-Jul-18 18:42 32.072509 -98.542239 111 35030ft 456kts
01-Jul-18 18:43 32.028127 -98.402217 111 35038ft 455kts
01-Jul-18 18:44 31.983695 -98.262504 112 35046ft 455kts
01-Jul-18 18:45 31.939293 -98.123315 112 35055ft 455kts
01-Jul-18 18:46 31.894470 -97.983804 112 35055ft 455kts
01-Jul-18 18:47 31.849658 -97.844752 112 35054ft 455kts
01-Jul-18 18:48 31.804580 -97.705473 112 35049ft 455kts
01-Jul-18 18:49 31.759387 -97.566460 112 35040ft 455kts
01-Jul-18 18:50 31.713955 -97.427317 112 35031ft 456kts
01-Jul-18 18:51 31.668484 -97.288500 111 35027ft 456kts
01-Jul-18 18:52 31.638835 -97.143933 102 35032ft 456kts
01-Jul-18 18:53 31.611659 -96.998170 103 35036ft 456kts
01-Jul-18 18:54 31.584459 -96.852824 103 35042ft 456kts
01-Jul-18 18:55 31.556985 -96.707947 103 35057ft 455kts
01-Jul-18 18:56 31.529445 -96.563079 103 35065ft 454kts
01-Jul-18 18:57 31.501718 -96.418363 103 35067ft 454kts
01-Jul-18 18:58 31.473879 -96.274110 103 35072ft 453kts
01-Jul-18 18:59 31.445982 -96.130332 103 35077ft 453kts
01-Jul-18 19:00 31.417949 -95.986749 103 35079ft 452kts
01-Jul-18 19:01 31.389787 -95.843304 103 35084ft 452kts
01-Jul-18 19:02 31.361448 -95.699920 103 35070ft 452kts
01-Jul-18 19:03 31.332895 -95.556370 103 35022ft 453kts
01-Jul-18 19:04 31.304200 -95.412978 103 35014ft 454kts
01-Jul-18 19:05 31.275166 -95.269048 103 35021ft 455kts
01-Jul-18 19:06 31.245900 -95.124449 103 35032ft 456kts
01-Jul-18 19:07 31.216517 -94.980612 103 35079ft 457kts
01-Jul-18 19:08 31.186738 -94.835298 103 35075ft 459kts
01-Jul-18 19:09 31.153452 -94.691773 111 35080ft 460kts
01-Jul-18 19:10 31.102616 -94.554496 112 35080ft 460kts
01-Jul-18 19:11 31.052651 -94.417346 112 35087ft 460kts
01-Jul-18 19:12 31.001892 -94.279940 112 35095ft 461kts
01-Jul-18 19:13 30.951023 -94.142560 113 35101ft 461kts
01-Jul-18 19:14 30.900069 -94.005351 113 35103ft 462kts
01-Jul-18 19:15 30.848802 -93.868081 113 35081ft 464kts
01-Jul-18 19:16 30.797269 -93.730197 113 35053ft 464kts
01-Jul-18 19:17 30.745487 -93.592565 113 35069ft 464kts
01-Jul-18 19:18 30.693523 -93.454889 113 35050ft 465kts
01-Jul-18 19:19 30.641426 -93.317272 113 35028ft 465kts
01-Jul-18 19:20 30.589134 -93.179914 113 35031ft 466kts
01-Jul-18 19:21 30.536648 -93.042337 113 35040ft 466kts
01-Jul-18 19:22 30.484050 -92.904958 114 35051ft 466kts
01-Jul-18 19:23 30.431334 -92.767978 114 35036ft 466kts
01-Jul-18 19:24 30.378304 -92.630555 114 35026ft 467kts
01-Jul-18 19:25 30.325228 -92.493573 114 35087ft 466kts
01-Jul-18 19:26 30.271929 -92.356675 114 35090ft 467kts
01-Jul-18 19:27 30.218433 -92.219641 114 35106ft 467kts
01-Jul-18 19:28 30.164755 -92.082673 114 35125ft 468kts
01-Jul-18 19:29 30.110800 -91.945642 114 35127ft 469kts
01-Jul-18 19:30 30.056773 -91.808850 115 35126ft 469kts
01-Jul-18 19:31 30.002501 -91.671849 115 35123ft 468kts
01-Jul-18 19:32 29.948135 -91.535211 114 35125ft 467kts
01-Jul-18 19:33 29.893923 -91.399450 114 35118ft 466kts
01-Jul-18 19:34 29.839652 -91.263948 115 35123ft 464kts
01-Jul-18 19:35 29.785561 -91.129342 114 35114ft 463kts
01-Jul-18 19:36 29.731297 -90.995169 114 35112ft 462kts
01-Jul-18 19:37 29.677076 -90.861146 114 35104ft 460kts
01-Jul-18 19:38 29.604893 -90.740457 128 35048ft 460kts
01-Jul-18 19:39 29.526681 -90.624373 127 35044ft 459kts
01-Jul-18 19:40 29.448245 -90.507897 127 35065ft 460kts
01-Jul-18 19:41 29.370107 -90.391983 127 35122ft 461kts
01-Jul-18 19:43 29.291151 -90.275359 127 35108ft 463kts
01-Jul-18 19:44 29.211647 -90.158250 127 35142ft 465kts
01-Jul-18 19:45 29.146986 -90.031542 112 35141ft 465kts
01-Jul-18 19:46 29.097059 -89.894866 113 35141ft 464kts
01-Jul-18 19:47 29.045981 -89.759589 112 35140ft 462kts
01-Jul-18 19:48 28.995298 -89.624973 112 35101ft 461kts
01-Jul-18 19:49 28.944396 -89.490327 112 35050ft 461kts
01-Jul-18 19:50 28.893305 -89.355735 112 35051ft 462kts
01-Jul-18 19:51 28.842255 -89.221672 112 35144ft 462kts
01-Jul-18 19:52 28.790662 -89.086600 112 35145ft 464kts
01-Jul-18 19:53 28.738926 -88.951804 112 35146ft 464kts
01-Jul-18 19:54 28.687207 -88.817398 112 35150ft 463kts
01-Jul-18 19:55 28.635340 -88.683245 112 35128ft 462kts
01-Jul-18 19:56 28.583418 -88.549128 112 35074ft 463kts
01-Jul-18 19:57 28.531303 -88.415312 112 35066ft 462kts
01-Jul-18 19:58 28.479350 -88.282092 112 35067ft 463kts
01-Jul-18 19:59 28.426884 -88.148103 112 35138ft 463kts
01-Jul-18 20:00 28.376024 -88.013756 106 35155ft 463kts
01-Jul-18 20:01 28.336189 -87.874268 106 35150ft 463kts
01-Jul-18 20:02 28.295915 -87.735861 106 35151ft 461kts
01-Jul-18 20:03 28.255735 -87.597449 106 35110ft 461kts
01-Jul-18 20:04 28.215453 -87.459321 106 35064ft 461kts
01-Jul-18 20:05 28.175085 -87.321722 106 35063ft 461kts
01-Jul-18 20:06 28.134497 -87.183839 106 35081ft 461kts
01-Jul-18 20:07 28.093727 -87.045960 106 35122ft 461kts
01-Jul-18 20:08 28.052976 -86.908439 106 35147ft 462kts
01-Jul-18 20:09 28.011850 -86.770652 106 35128ft 462kts
01-Jul-18 20:10 27.972039 -86.632861 105 35131ft 459kts
01-Jul-18 20:11 27.932197 -86.495930 105 35121ft 457kts
01-Jul-18 20:12 27.892415 -86.359120 105 35041ft 457kts
01-Jul-18 20:13 27.852415 -86.222444 105 35043ft 459kts
01-Jul-18 20:14 27.812217 -86.085647 105 35138ft 459kts
01-Jul-18 20:15 27.771799 -85.948553 106 35134ft 461kts
01-Jul-18 20:16 27.731305 -85.811821 105 35134ft 459kts
01-Jul-18 20:17 27.690658 -85.675168 105 35138ft 458kts
01-Jul-18 20:18 27.650103 -85.539436 105 35139ft 457kts
01-Jul-18 20:18 27.616191 -85.426158 105 35138ft 456kts
01-Jul-18 20:19 27.581642 -85.289494 98 35121ft 452kts
01-Jul-18 20:20 27.558058 -85.150199 98 35110ft 451kts
01-Jul-18 20:21 27.533633 -85.011841 98 35105ft 450kts
01-Jul-18 20:23 27.505169 -84.850348 98 35071ft 450kts
01-Jul-18 20:24 27.480692 -84.712204 98 35067ft 450kts
01-Jul-18 20:24 27.460196 -84.597382 98 35068ft 449kts
01-Jul-18 20:25 27.435435 -84.459543 98 35070ft 449kts
01-Jul-18 20:26 27.410547 -84.321527 98 35071ft 450kts
01-Jul-18 20:27 27.385499 -84.183729 98 35100ft 449kts
01-Jul-18 20:28 27.360367 -84.045929 98 35122ft 449kts
01-Jul-18 20:29 27.335071 -83.908440 99 35172ft 448kts
01-Jul-18 20:30 27.309701 -83.770900 99 35169ft 448kts
01-Jul-18 20:31 27.284325 -83.634129 99 35168ft 447kts
01-Jul-18 20:32 27.258751 -83.497438 99 35171ft 446kts
01-Jul-18 20:33 27.233213 -83.361635 99 35172ft 444kts
01-Jul-18 20:34 27.207502 -83.225432 99 35163ft 444kts
01-Jul-18 20:35 27.181859 -83.090183 99 35165ft 443kts
01-Jul-18 20:36 27.155987 -82.954801 99 35152ft 443kts
01-Jul-18 20:37 27.117323 -82.824267 122 35120ft 451kts
01-Jul-18 20:38 27.026918 -82.724334 132 35122ft 457kts
01-Jul-18 20:39 26.936345 -82.624452 132 35187ft 457kts
01-Jul-18 20:40 26.845461 -82.525462 132 35181ft 455kts
01-Jul-18 20:41 26.754689 -82.426749 132 35183ft 454kts
01-Jul-18 20:42 26.664451 -82.328632 132 35136ft 453kts
01-Jul-18 20:43 26.573687 -82.230374 132 35112ft 452kts
01-Jul-18 20:44 26.483377 -82.132832 132 35103ft 451kts
01-Jul-18 20:45 26.393420 -82.035933 132 35095ft 450kts
01-Jul-18 20:46 26.303179 -81.938773 132 35096ft 449kts
01-Jul-18 20:47 26.213136 -81.842252 132 35104ft 450kts
01-Jul-18 20:48 26.133273 -81.737098 114 35142ft 441kts
01-Jul-18 20:49 26.078904 -81.614919 113 35182ft 441kts
01-Jul-18 20:50 26.022745 -81.493926 113 35200ft 442kts
01-Jul-18 20:51 25.966734 -81.371857 113 35202ft 441kts
01-Jul-18 20:52 25.910700 -81.250790 113 35197ft 440kts
01-Jul-18 20:53 25.854628 -81.129730 113 35155ft 440kts
01-Jul-18 20:54 25.798546 -81.008819 114 35107ft 441kts
01-Jul-18 20:55 25.742281 -80.888089 114 35115ft 441kts
01-Jul-18 20:56 25.685752 -80.766992 114 35102ft 441kts
01-Jul-18 20:57 25.629445 -80.646780 114 35103ft 441kts
01-Jul-18 20:58 25.572761 -80.525976 114 35101ft 441kts
01-Jul-18 20:59 25.516136 -80.405667 114 35097ft 441kts
01-Jul-18 21:00 25.459330 -80.285379 114 35096ft 441kts
01-Jul-18 21:01 25.402510 -80.165139 114 35096ft 441kts
01-Jul-18 21:02 25.345559 -80.045208 114 35095ft 441kts
01-Jul-18 21:03 25.288345 -79.924978 114 35127ft 440kts
01-Jul-18 21:04 25.231304 -79.805251 114 35123ft 440kts
01-Jul-18 21:05 25.174237 -79.685995 114 35126ft 440kts
01-Jul-18 21:06 25.117001 -79.566592 114 35129ft 440kts
01-Jul-18 21:07 25.059538 -79.447071 115 35134ft 440kts
01-Jul-18 21:08 25.002066 -79.327863 115 35141ft 440kts
01-Jul-18 21:09 24.944603 -79.208964 115 35171ft 439kts
01-Jul-18 21:10 24.876056 -79.096360 122 35169ft 442kts
01-Jul-18 21:11 24.805698 -78.985233 121 35170ft 442kts
01-Jul-18 21:12 24.735397 -78.874398 121 35180ft 442kts
01-Jul-18 21:13 24.664858 -78.763225 121 35170ft 442kts
01-Jul-18 21:14 24.594411 -78.652671 122 35181ft 442kts
01-Jul-18 21:15 24.523728 -78.542015 122 35168ft 442kts
01-Jul-18 21:16 24.452973 -78.431436 122 35155ft 443kts
01-Jul-18 21:17 24.381974 -78.320688 122 35179ft 443kts
01-Jul-18 21:18 24.310937 -78.210108 122 35175ft 443kts
01-Jul-18 21:19 24.239971 -78.099946 122 35172ft 442kts
01-Jul-18 21:20 24.168825 -77.989889 122 35127ft 443kts
01-Jul-18 21:21 24.097665 -77.879709 122 35109ft 443kts
01-Jul-18 21:22 24.026293 -77.769604 122 35086ft 443kts
01-Jul-18 21:23 23.954814 -77.659775 122 35084ft 443kts
01-Jul-18 21:24 23.883108 -77.549646 123 35129ft 445kts
01-Jul-18 21:25 23.811284 -77.439663 123 35174ft 446kts
01-Jul-18 21:26 23.739248 -77.329414 123 35172ft 445kts
01-Jul-18 21:27 23.667063 -77.219309 123 35161ft 445kts
01-Jul-18 21:28 23.591731 -77.111868 125 35134ft 446kts
01-Jul-18 21:29 23.515813 -77.004576 125 35096ft 448kts
01-Jul-18 21:30 23.439633 -76.897070 126 35099ft 448kts
01-Jul-18 21:31 23.363312 -76.789648 126 35136ft 448kts
01-Jul-18 21:32 23.287198 -76.682533 126 35163ft 448kts
01-Jul-18 21:33 23.210569 -76.575272 126 35167ft 450kts
01-Jul-18 21:34 23.133664 -76.467732 126 35164ft 450kts
01-Jul-18 21:35 23.056771 -76.360281 126 35148ft 450kts
01-Jul-18 21:36 22.979795 -76.253031 127 35126ft 451kts
01-Jul-18 21:37 22.902443 -76.145398 127 35123ft 452kts
01-Jul-18 21:38 22.825078 -76.038103 127 35137ft 453kts
01-Jul-18 21:39 22.747182 -75.930353 128 35112ft 455kts
01-Jul-18 21:40 22.669039 -75.822333 128 35114ft 456kts
01-Jul-18 21:41 22.590606 -75.714143 128 35130ft 456kts
01-Jul-18 21:42 22.512122 -75.606156 128 35151ft 457kts
01-Jul-18 21:43 22.433659 -75.498366 128 35147ft 457kts
01-Jul-18 21:44 22.354936 -75.390469 128 35143ft 457kts
01-Jul-18 21:45 22.275874 -75.282336 128 35145ft 457kts
01-Jul-18 21:46 22.197087 -75.174841 128 35134ft 458kts
01-Jul-18 21:47 22.117988 -75.067082 128 35133ft 458kts
01-Jul-18 21:48 22.048338 -74.951630 123 35115ft 459kts
01-Jul-18 21:49 21.979767 -74.835500 124 35076ft 461kts
01-Jul-18 21:50 21.910610 -74.718233 124 35041ft 465kts
01-Jul-18 21:51 21.840844 -74.600476 124 35126ft 466kts
01-Jul-18 21:52 21.771262 -74.483193 124 35105ft 465kts
01-Jul-18 21:53 21.701416 -74.365941 124 35056ft 464kts
01-Jul-18 21:55 21.631720 -74.248895 124 35014ft 464kts
01-Jul-18 21:56 21.561877 -74.131960 124 35017ft 465kts
01-Jul-18 21:57 21.491925 -74.015085 125 35058ft 465kts
01-Jul-18 21:58 21.421786 -73.898152 125 35040ft 467kts
01-Jul-18 21:59 21.351438 -73.781195 125 35066ft 468kts
01-Jul-18 22:00 21.280782 -73.663759 125 35085ft 468kts
01-Jul-18 22:01 21.209956 -73.546511 126 35098ft 469kts
01-Jul-18 22:02 21.138910 -73.429071 125 35094ft 470kts
01-Jul-18 22:03 21.067691 -73.311516 126 35096ft 470kts
01-Jul-18 22:04 20.996294 -73.194112 126 35093ft 470kts
01-Jul-18 22:05 20.925029 -73.076965 126 35096ft 471kts
01-Jul-18 22:06 20.853418 -72.959689 126 34639ft 469kts
01-Jul-18 22:07 20.781704 -72.842464 126 33631ft 472kts
01-Jul-18 22:08 20.709701 -72.725011 125 32641ft 473kts
01-Jul-18 22:09 20.637381 -72.607354 125 31648ft 473kts
01-Jul-18 22:10 20.565190 -72.489760 125 30656ft 474kts
01-Jul-18 22:11 20.492788 -72.372431 125 29665ft 475kts
01-Jul-18 22:12 20.420610 -72.255047 122 28670ft 473kts
01-Jul-18 22:13 20.368114 -72.126809 113 27677ft 468kts
01-Jul-18 22:14 20.317731 -72.000254 114 26682ft 459kts
01-Jul-18 22:15 20.268604 -71.876603 114 24593ft 447kts
01-Jul-18 22:16 20.220551 -71.756391 113 22037ft 434kts
01-Jul-18 22:17 20.162499 -71.654760 134 21138ft 377kts
01-Jul-18 22:18 20.092636 -71.580218 133 19761ft 348kts
01-Jul-18 22:19 20.026049 -71.506792 132 17852ft 339kts
01-Jul-18 22:20 19.961060 -71.435741 132 16078ft 331kts
01-Jul-18 22:21 19.897891 -71.366511 132 14476ft 321kts
01-Jul-18 22:22 19.836318 -71.299306 132 12957ft 315kts
01-Jul-18 22:23 19.775502 -71.232943 133 11379ft 309kts
01-Jul-18 22:24 19.716685 -71.168747 133 9860ft 298kts
01-Jul-18 22:25 19.659061 -71.105930 133 8153ft 292kts
01-Jul-18 22:26 19.603819 -71.045764 133 6578ft 282kts
01-Jul-18 22:27 19.550638 -70.987866 133 5445ft 252kts
01-Jul-18 22:28 19.505229 -70.938502 133 4246ft 233kts
01-Jul-18 22:29 19.468747 -70.889939 106 3987ft 181kts
01-Jul-18 22:30 19.458344 -70.844401 102 3992ft 152kts
01-Jul-18 22:31 19.450075 -70.803286 99 3277ft 138kts
01-Jul-18 22:32 19.447189 -70.759831 95 1859ft 151kts
01-Jul-18 22:33 19.445365 -70.743534 97 1409ft 151kts
01-Jul-18 22:34 19.470074 -70.862659 96 4328ft 205kts
01-Jul-18 22:35 19.465274 -70.826583 97 3547ft 186kts
01-Jul-18 22:36 19.454948 -70.774006 102 3125ft 174kts
01-Jul-18 22:36 19.444778 -70.728869 116 2593ft 184kts
01-Jul-18 22:37 19.418135 -70.658086 103 1724ft 149kts
01-Jul-18 22:38 19.409339 -70.619467 102 671ft 125kts
01-Jul-18 22:39 19.405507 -70.604252 191 579ft 6kts
01-Jul-18 22:40 19.404942 -70.604369 192 579ft 0kts
01-Jul-18 22:41 19.404055 -70.603835 103 579ft 6kts
01-Jul-18 22:42 19.403596 -70.601768 102 579ft 0kts
01-Jul-18 22:43 19.403596 -70.601768 102 579ft 0kts
01-Jul-18 22:44 19.403596 -70.601768 102 579ft 0kts
01-Jul-18 22:45 19.403596 -70.601767 102 579ft 0kts
01-Jul-18 22:46 19.403595 -70.601767 102 579ft 0kts
01-Jul-18 22:47 19.403316 -70.601386 160 579ft 5kts
01-Jul-18 22:48 19.402813 -70.601453 194 579ft 0kts
01-Jul-18 22:49 19.402813 -70.601453 194 579ft 0kts
01-Jul-18 22:50 19.402813 -70.601453 194 579ft 0kts
01-Jul-18 22:51 19.402813 -70.601453 194 579ft 0kts
01-Jul-18 22:52 19.402813 -70.601453 194 579ft 0kts

Navigation Log

Ident Type
Flight plan parsing failed, navigation log unavailable